createdAt,value
2023-03-11T00:02:22.480Z,99315.63
2023-03-11T00:04:49.216Z,99308.97
2023-03-11T00:07:15.833Z,99306.47
2023-03-11T00:09:42.701Z,99300.50
2023-03-11T00:12:09.419Z,99314.41
2023-03-11T00:14:36.016Z,99309.25
2023-03-11T00:17:02.649Z,99306.44
2023-03-11T00:19:29.249Z,99300.78
2023-03-11T00:21:55.965Z,99301.25
2023-03-11T00:24:22.592Z,99305.53
2023-03-11T00:26:49.203Z,99303.47
2023-03-11T00:29:15.801Z,99291.97
2023-03-11T00:31:42.420Z,99300.16
2023-03-11T00:34:09.056Z,99294.09
2023-03-11T00:36:35.693Z,99285.41
2023-03-11T00:39:06.669Z,99287.16
2023-03-11T00:41:34.617Z,99294.31
2023-03-11T00:44:01.455Z,99285.59
2023-03-11T00:46:29.880Z,99284.09
2023-03-11T00:48:56.664Z,99289.31
2023-03-11T00:51:23.309Z,99302.75
2023-03-11T00:53:49.901Z,99293.13
2023-03-11T00:56:17.062Z,99293.28
2023-03-11T00:58:45.101Z,99291.91
2023-03-11T01:01:15.521Z,99295.59
2023-03-11T01:03:43.123Z,99286.03
2023-03-11T01:06:09.848Z,99276.13
2023-03-11T01:08:36.772Z,99285.75
2023-03-11T01:11:05.234Z,99293.72
2023-03-11T01:13:33.056Z,99282.59
2023-03-11T01:16:00.130Z,99289.34
2023-03-11T01:18:27.737Z,99285.84
2023-03-11T01:20:55.085Z,99282.53
2023-03-11T01:23:22.499Z,99283.34
2023-03-11T01:25:49.189Z,99279.06
2023-03-11T01:28:16.122Z,99274.88
2023-03-11T01:30:43.100Z,99283.34
2023-03-11T01:33:15.737Z,99283.22
2023-03-11T01:35:43.652Z,99286.19
2023-03-11T01:38:11.253Z,99287.78
2023-03-11T01:40:42.509Z,99283.88
2023-03-11T01:43:43.055Z,99282.84
2023-03-11T01:46:20.530Z,99281.97
2023-03-11T01:49:06.138Z,99277.34
2023-03-11T01:51:40.502Z,99273.84
2023-03-11T01:54:11.855Z,99270.13
2023-03-11T01:56:39.802Z,99269.31
2023-03-11T01:59:08.216Z,99264.66
2023-03-11T02:01:38.281Z,99263.44
2023-03-11T02:04:04.921Z,99262.25
2023-03-11T02:06:32.690Z,99257.78
2023-03-11T02:09:01.035Z,99270.06
2023-03-11T02:11:30.638Z,99269.78
2023-03-11T02:14:02.434Z,99270.78
2023-03-11T02:16:29.196Z,99269.28
2023-03-11T02:18:59.389Z,99259.59
2023-03-11T02:21:34.275Z,99255.28
2023-03-11T02:24:19.426Z,99253.72
2023-03-11T02:26:51.802Z,99244.03
2023-03-11T02:29:20.181Z,99235.69
2023-03-11T02:31:48.553Z,99233.00
2023-03-11T02:34:26.481Z,99224.56
2023-03-11T02:36:53.429Z,99225.41
2023-03-11T02:39:34.720Z,99232.63
2023-03-11T02:42:07.586Z,99237.53
2023-03-11T02:44:34.629Z,99231.91
2023-03-11T02:47:01.508Z,99241.63
2023-03-11T02:49:28.260Z,99242.66
2023-03-11T02:51:54.842Z,99243.97
2023-03-11T02:54:21.481Z,99234.97
2023-03-11T02:56:48.187Z,99235.38
2023-03-11T02:59:14.940Z,99235.94
2023-03-11T03:01:41.538Z,99236.84
2023-03-11T03:04:08.201Z,99230.09
2023-03-11T03:06:34.827Z,99232.72
2023-03-11T03:09:01.683Z,99235.78
2023-03-11T03:11:28.313Z,99225.91
2023-03-11T03:13:54.927Z,99222.53
2023-03-11T03:16:21.627Z,99226.34
2023-03-11T03:18:48.438Z,99234.03
2023-03-11T03:21:15.102Z,99240.53
2023-03-11T03:23:41.706Z,99230.81
2023-03-11T03:26:08.362Z,99228.13
2023-03-11T03:28:34.956Z,99223.38
2023-03-11T03:31:09.572Z,99222.75
2023-03-11T03:33:36.286Z,99211.19
2023-03-11T03:36:10.516Z,99212.84
2023-03-11T03:38:37.260Z,99216.28
2023-03-11T03:41:05.102Z,99212.84
2023-03-11T03:43:31.790Z,99222.19
2023-03-11T03:46:01.484Z,99216.75
2023-03-11T03:48:28.181Z,99217.38
2023-03-11T03:50:55.380Z,99229.06
2023-03-11T03:53:22.022Z,99238.44
2023-03-11T03:55:50.859Z,99236.94
2023-03-11T03:58:17.503Z,99236.31
2023-03-11T04:00:44.102Z,99236.22
2023-03-11T04:03:10.773Z,99224.81
2023-03-11T04:05:37.457Z,99226.75
2023-03-11T04:08:04.202Z,99228.59
2023-03-11T04:10:30.860Z,99230.19
2023-03-11T04:12:57.518Z,99231.38
2023-03-11T04:15:24.212Z,99231.19
2023-03-11T04:17:50.810Z,99231.13
2023-03-11T04:20:17.535Z,99239.19
2023-03-11T04:22:44.166Z,99234.44
2023-03-11T04:25:10.768Z,99240.84
2023-03-11T04:27:38.561Z,99240.75
2023-03-11T04:30:05.883Z,99244.91
2023-03-11T04:32:32.521Z,99235.38
2023-03-11T04:34:59.198Z,99246.75
2023-03-11T04:37:29.307Z,99246.22
2023-03-11T04:39:55.953Z,99256.19
2023-03-11T04:42:22.628Z,99270.78
2023-03-11T04:44:49.256Z,99275.13
2023-03-11T04:47:15.956Z,99285.69
2023-03-11T04:49:42.572Z,99281.81
2023-03-11T04:52:09.232Z,99279.56
2023-03-11T04:54:35.841Z,99278.00
2023-03-11T04:57:02.513Z,99278.44
2023-03-11T04:59:29.452Z,99285.78
2023-03-11T05:01:56.064Z,99287.09
2023-03-11T05:04:22.824Z,99285.41
2023-03-11T05:06:51.324Z,99277.72
2023-03-11T05:09:17.997Z,99276.31
2023-03-11T05:11:44.577Z,99283.38
2023-03-11T05:14:11.186Z,99274.38
2023-03-11T05:16:37.818Z,99270.56
2023-03-11T05:19:27.500Z,99263.06
2023-03-11T05:21:54.184Z,99249.88
2023-03-11T05:24:20.851Z,99260.63
2023-03-11T05:26:48.607Z,99262.88
2023-03-11T05:29:15.256Z,99272.25
2023-03-11T05:31:41.876Z,99277.69
2023-03-11T05:34:08.530Z,99272.78
2023-03-11T05:36:35.221Z,99273.31
2023-03-11T05:39:01.906Z,99280.28
2023-03-11T05:41:28.504Z,99277.88
2023-03-11T05:43:55.094Z,99287.88
2023-03-11T05:46:21.826Z,99299.75
2023-03-11T05:48:48.589Z,99297.25
2023-03-11T05:51:15.491Z,99306.34
2023-03-11T05:53:48.236Z,99311.34
2023-03-11T05:56:16.405Z,99312.63
2023-03-11T05:58:43.034Z,99316.00
2023-03-11T06:01:15.742Z,99321.63
2023-03-11T06:03:43.204Z,99330.84
2023-03-11T06:06:12.629Z,99323.13
2023-03-11T06:08:39.716Z,99326.66
2023-03-11T06:11:09.532Z,99325.34
2023-03-11T06:13:37.311Z,99312.94
2023-03-11T06:16:04.916Z,99309.31
2023-03-11T06:18:31.609Z,99303.84
2023-03-11T06:20:59.482Z,99294.00
2023-03-11T06:23:27.027Z,99301.25
2023-03-11T06:25:58.419Z,99307.66
2023-03-11T06:28:25.757Z,99295.94
2023-03-11T06:30:52.528Z,99304.75
2023-03-11T06:33:19.166Z,99293.44
2023-03-11T06:35:55.636Z,99302.03
2023-03-11T06:38:22.279Z,99298.72
2023-03-11T06:40:48.943Z,99300.56
2023-03-11T06:43:15.624Z,99309.38
2023-03-11T06:45:42.248Z,99317.44
2023-03-11T06:48:08.947Z,99322.19
2023-03-11T06:50:35.549Z,99327.28
2023-03-11T06:53:03.045Z,99332.41
2023-03-11T06:55:31.833Z,99321.97
2023-03-11T06:57:58.488Z,99305.25
2023-03-11T07:00:25.239Z,99309.63
2023-03-11T07:02:51.884Z,99302.97
2023-03-11T07:05:18.526Z,99309.25
2023-03-11T07:07:45.276Z,99305.25
2023-03-11T07:10:12.200Z,99299.63
2023-03-11T07:12:38.783Z,99294.91
2023-03-11T07:15:05.905Z,99305.56
2023-03-11T07:17:32.606Z,99309.25
2023-03-11T07:19:59.281Z,99294.78
2023-03-11T07:22:25.996Z,99288.38
2023-03-11T07:24:52.823Z,99292.72
2023-03-11T07:27:19.810Z,99288.63
2023-03-11T07:29:46.519Z,99290.19
2023-03-11T07:32:13.239Z,99293.13
2023-03-11T07:34:39.904Z,99298.97
2023-03-11T07:37:06.612Z,99301.25
2023-03-11T07:39:33.237Z,99302.53
2023-03-11T07:41:59.890Z,99306.47
2023-03-11T07:44:26.528Z,99319.72
2023-03-11T07:46:53.193Z,99325.38
2023-03-11T07:49:20.062Z,99324.63
2023-03-11T07:51:46.733Z,99326.28
2023-03-11T07:54:13.749Z,99318.59
2023-03-11T07:56:40.577Z,99312.88
2023-03-11T07:59:07.239Z,99309.44
2023-03-11T08:01:36.593Z,99307.03
2023-03-11T08:04:05.760Z,99301.13
2023-03-11T08:06:34.899Z,99303.13
2023-03-11T08:09:04.340Z,99300.69
2023-03-11T08:11:31.852Z,99304.31
2023-03-11T08:13:59.326Z,99301.13
2023-03-11T08:16:26.792Z,99299.78
2023-03-11T08:18:53.774Z,99307.50
2023-03-11T08:21:26.681Z,99311.09
2023-03-11T08:23:57.875Z,99308.06
2023-03-11T08:26:24.722Z,99312.47
2023-03-11T08:28:51.391Z,99306.28
2023-03-11T08:31:24.542Z,99312.25
2023-03-11T08:33:53.919Z,99317.69
2023-03-11T08:36:21.153Z,99306.47
2023-03-11T08:38:48.001Z,99312.91
2023-03-11T08:41:15.446Z,99309.38
2023-03-11T08:43:42.955Z,99306.91
2023-03-11T08:46:17.990Z,99306.94
2023-03-11T08:48:44.771Z,99305.91
2023-03-11T08:51:13.321Z,99301.38
2023-03-11T08:53:40.473Z,99307.81
2023-03-11T08:56:08.016Z,99300.97
2023-03-11T08:58:35.102Z,99311.38
2023-03-11T09:01:01.915Z,99309.06
2023-03-11T09:03:31.946Z,99304.50
2023-03-11T09:06:00.404Z,99303.00
2023-03-11T09:08:27.265Z,99307.59
2023-03-11T09:10:53.903Z,99303.22
2023-03-11T09:13:20.856Z,99300.91
2023-03-11T09:15:51.626Z,99302.94
2023-03-11T09:18:18.799Z,99310.41
2023-03-11T09:20:46.215Z,99296.44
2023-03-11T09:23:15.542Z,99298.31
2023-03-11T09:25:42.548Z,99298.28
2023-03-11T09:28:09.453Z,99295.72
2023-03-11T09:30:36.106Z,99294.06
2023-03-11T09:33:02.814Z,99285.50
2023-03-11T09:35:29.610Z,99279.91
2023-03-11T09:37:56.240Z,99279.91
2023-03-11T09:40:25.633Z,99280.13
2023-03-11T09:43:14.884Z,99279.88
2023-03-11T09:45:50.064Z,99274.00
2023-03-11T09:48:32.506Z,99273.13
2023-03-11T09:51:36.155Z,99278.28
2023-03-11T09:54:11.619Z,99282.19
2023-03-11T09:56:39.204Z,99280.91
2023-03-11T09:59:17.237Z,99271.25
2023-03-11T10:01:46.969Z,99269.94
2023-03-11T10:04:20.698Z,99280.34
2023-03-11T10:06:48.451Z,99270.88
2023-03-11T10:09:40.877Z,99274.34
2023-03-11T10:12:18.097Z,99265.34
2023-03-11T10:14:47.942Z,99263.81
2023-03-11T10:17:44.186Z,99261.47
2023-03-11T10:20:22.076Z,99264.72
2023-03-11T10:23:38.201Z,99268.31
2023-03-11T10:26:26.438Z,99285.97
2023-03-11T10:29:21.997Z,99295.84
2023-03-11T10:31:54.713Z,99282.25
2023-03-11T10:34:38.381Z,99260.91
2023-03-11T10:37:11.479Z,99272.25
2023-03-11T10:39:39.476Z,99265.50
2023-03-11T10:42:13.487Z,99272.53
2023-03-11T10:44:41.621Z,99270.97
2023-03-11T10:47:17.353Z,99267.13
2023-03-11T10:49:44.300Z,99266.88
2023-03-11T10:52:11.462Z,99260.72
2023-03-11T10:54:45.952Z,99252.81
2023-03-11T10:57:27.647Z,99250.44
2023-03-11T10:59:56.235Z,99249.22
2023-03-11T11:02:42.704Z,99243.50
2023-03-11T11:05:17.052Z,99240.78
2023-03-11T11:07:46.066Z,99239.56
2023-03-11T11:10:15.612Z,99237.47
2023-03-11T11:13:16.774Z,99245.22
2023-03-11T11:15:58.090Z,99240.44
2023-03-11T11:18:42.797Z,99248.72
2023-03-11T11:21:16.102Z,99234.53
2023-03-11T11:23:47.954Z,99236.13
2023-03-11T11:26:23.780Z,99233.84
2023-03-11T11:29:11.507Z,99220.41
2023-03-11T11:31:45.951Z,99218.50
2023-03-11T11:34:30.126Z,99213.53
2023-03-11T11:36:59.197Z,99217.81
2023-03-11T11:39:28.926Z,99206.03
2023-03-11T11:41:56.783Z,99217.41
2023-03-11T11:44:33.921Z,99214.34
2023-03-11T11:47:39.322Z,99220.16
2023-03-11T11:50:13.230Z,99214.97
2023-03-11T11:52:54.277Z,99216.16
2023-03-11T11:55:25.245Z,99217.69
2023-03-11T11:57:52.516Z,99214.03
2023-03-11T12:00:34.496Z,99210.94
2023-03-11T12:03:19.506Z,99219.13
2023-03-11T12:05:58.076Z,99220.31
2023-03-11T12:08:53.016Z,99222.91
2023-03-11T12:11:28.799Z,99217.25
2023-03-11T12:14:10.381Z,99214.97
2023-03-11T12:16:53.840Z,99210.72
2023-03-11T12:19:32.910Z,99212.13
2023-03-11T12:21:59.459Z,99205.16
2023-03-11T12:24:50.814Z,99206.69
2023-03-11T12:27:41.992Z,99202.56
2023-03-11T12:30:20.137Z,99204.44
2023-03-11T12:32:56.401Z,99205.75
2023-03-11T12:35:27.821Z,99206.34
2023-03-11T12:38:02.788Z,99201.50
2023-03-11T12:40:44.655Z,99200.06
2023-03-11T12:43:35.867Z,99189.78
2023-03-11T12:46:04.489Z,99184.69
2023-03-11T12:48:35.383Z,99184.59
2023-03-11T12:51:02.476Z,99182.22
2023-03-11T12:53:49.040Z,99182.78
2023-03-11T12:56:40.858Z,99181.97
2023-03-11T12:59:40.527Z,99184.69
2023-03-11T13:02:09.879Z,99173.91
2023-03-11T13:04:59.252Z,99174.28
2023-03-11T13:07:47.676Z,99159.13
2023-03-11T13:10:38.751Z,99152.72
2023-03-11T13:13:30.419Z,99138.41
2023-03-11T13:15:58.556Z,99133.44
2023-03-11T13:18:27.020Z,99129.66
2023-03-11T13:21:05.125Z,99118.53
2023-03-11T13:23:37.711Z,99120.09
2023-03-11T13:26:10.267Z,99122.78
2023-03-11T13:29:08.842Z,99127.38
2023-03-11T13:32:12.777Z,99123.09
2023-03-11T13:34:40.471Z,99117.06
2023-03-11T13:37:19.041Z,99112.94
2023-03-11T13:40:14.251Z,99107.75
2023-03-11T13:42:51.059Z,99101.34
2023-03-11T13:45:35.266Z,99096.50
2023-03-11T13:48:16.806Z,99097.94
2023-03-11T13:50:49.338Z,99093.69
2023-03-11T13:53:22.873Z,99097.59
2023-03-11T13:55:50.034Z,99101.28
2023-03-11T13:58:26.167Z,99095.38
2023-03-11T14:00:59.354Z,99088.53
2023-03-11T14:03:29.462Z,99090.41
2023-03-11T14:06:02.508Z,99081.28
2023-03-11T14:08:39.701Z,99081.19
2023-03-11T14:11:12.051Z,99091.34
2023-03-11T14:13:41.843Z,99082.03
2023-03-11T14:16:26.512Z,99082.84
2023-03-11T14:19:15.785Z,99072.78
2023-03-11T14:21:44.433Z,99060.38
2023-03-11T14:24:19.790Z,99067.94
2023-03-11T14:26:48.679Z,99063.91
2023-03-11T14:29:20.877Z,99061.66
2023-03-11T14:31:47.778Z,99057.97
2023-03-11T14:34:22.610Z,99051.47
2023-03-11T14:36:55.402Z,99056.22
2023-03-11T14:39:22.970Z,99062.97
2023-03-11T14:41:52.769Z,99057.69
2023-03-11T14:44:20.184Z,99068.78
2023-03-11T14:46:48.472Z,99067.84
2023-03-11T14:49:21.001Z,99062.03
2023-03-11T14:51:56.897Z,99067.94
2023-03-11T14:54:29.665Z,99074.44
2023-03-11T14:57:07.367Z,99073.28
2023-03-11T14:59:36.046Z,99078.19
2023-03-11T15:02:37.685Z,99075.13
2023-03-11T15:05:13.908Z,99077.38
2023-03-11T15:07:40.679Z,99062.72
2023-03-11T15:10:09.953Z,99065.56
2023-03-11T15:12:46.022Z,99061.28
2023-03-11T15:15:42.176Z,99061.41
2023-03-11T15:18:28.941Z,99055.13
2023-03-11T15:21:17.994Z,99058.91
2023-03-11T15:23:50.840Z,99055.84
2023-03-11T15:26:26.494Z,99060.44
2023-03-11T15:28:56.099Z,99064.31
2023-03-11T15:31:22.663Z,99050.28
2023-03-11T15:33:49.405Z,99057.44
2023-03-11T15:36:39.596Z,99053.31
2023-03-11T15:39:13.719Z,99047.88
2023-03-11T15:41:44.880Z,99051.88
2023-03-11T15:44:49.675Z,99052.72
2023-03-11T15:47:18.429Z,99052.00
2023-03-11T15:49:45.660Z,99045.53
2023-03-11T15:52:12.538Z,99034.44
2023-03-11T15:54:39.761Z,99020.03
2023-03-11T15:57:10.640Z,99015.88
2023-03-11T15:59:41.207Z,99027.25
2023-03-11T16:02:20.761Z,99022.50
2023-03-11T16:04:47.519Z,99026.72
2023-03-11T16:07:14.252Z,99032.16
2023-03-11T16:09:40.912Z,99035.19
2023-03-11T16:12:19.435Z,99028.44
2023-03-11T16:14:47.584Z,99022.78
2023-03-11T16:17:15.160Z,99022.41
2023-03-11T16:19:49.628Z,99019.66
2023-03-11T16:22:30.729Z,99022.75
2023-03-11T16:24:59.789Z,99023.34
2023-03-11T16:27:27.393Z,99016.25
2023-03-11T16:29:54.084Z,99015.94
2023-03-11T16:32:20.735Z,99000.81
2023-03-11T16:34:47.445Z,99005.84
2023-03-11T16:37:20.816Z,99007.25
2023-03-11T16:39:48.584Z,99004.97
2023-03-11T16:42:24.009Z,99020.22
2023-03-11T16:44:50.682Z,99009.44
2023-03-11T16:47:18.210Z,99004.69
2023-03-11T16:49:44.827Z,99008.25
2023-03-11T16:52:11.425Z,99006.97
2023-03-11T16:54:38.166Z,99001.16
2023-03-11T16:57:04.833Z,99007.03
2023-03-11T16:59:31.483Z,99000.78
2023-03-11T17:01:58.302Z,99008.88
2023-03-11T17:04:24.893Z,99004.16
2023-03-11T17:06:51.534Z,98997.03
2023-03-11T17:09:18.165Z,99001.13
2023-03-11T17:11:44.910Z,98991.94
2023-03-11T17:14:16.605Z,98996.56
2023-03-11T17:16:45.286Z,98998.41
2023-03-11T17:19:12.016Z,99001.59
2023-03-11T17:21:39.103Z,99004.59
2023-03-11T17:24:07.253Z,99013.03
2023-03-11T17:26:34.115Z,99009.13
2023-03-11T17:29:01.101Z,99003.69
2023-03-11T17:31:27.895Z,99004.38
2023-03-11T17:33:54.683Z,98990.53
2023-03-11T17:36:21.281Z,98984.50
2023-03-11T17:38:48.112Z,98987.00
2023-03-11T17:41:16.964Z,98991.78
2023-03-11T17:43:44.608Z,98992.84
2023-03-11T17:46:14.635Z,98985.34
2023-03-11T17:48:45.117Z,98981.19
2023-03-11T17:51:13.957Z,98977.13
2023-03-11T17:53:45.230Z,98985.47
2023-03-11T17:56:14.455Z,98984.25
2023-03-11T17:58:41.173Z,98982.00
2023-03-11T18:01:12.054Z,98982.38
2023-03-11T18:03:38.691Z,98980.13
2023-03-11T18:06:06.475Z,98975.50
2023-03-11T18:08:35.341Z,98976.56
2023-03-11T18:11:07.893Z,98965.16
2023-03-11T18:13:36.187Z,98973.47
2023-03-11T18:16:06.132Z,98979.72
2023-03-11T18:18:34.909Z,98974.81
2023-03-11T18:21:07.855Z,98977.75
2023-03-11T18:23:35.143Z,98976.13
2023-03-11T18:26:03.322Z,98978.19
2023-03-11T18:28:30.545Z,98979.88
2023-03-11T18:30:57.706Z,98984.84
2023-03-11T18:33:25.105Z,98976.72
2023-03-11T18:35:51.768Z,98970.31
2023-03-11T18:38:18.697Z,98967.38
2023-03-11T18:40:45.391Z,98961.59
2023-03-11T18:43:14.362Z,98951.13
2023-03-11T18:45:41.076Z,98950.28
2023-03-11T18:48:07.733Z,98953.22
2023-03-11T18:50:34.481Z,98953.63
2023-03-11T18:53:01.926Z,98944.28
2023-03-11T18:55:28.541Z,98938.25
2023-03-11T18:57:55.174Z,98933.44
2023-03-11T19:00:23.645Z,98925.53
2023-03-11T19:02:52.050Z,98935.19
2023-03-11T19:05:18.839Z,98930.34
2023-03-11T19:07:45.882Z,98924.03
2023-03-11T19:10:14.910Z,98919.44
2023-03-11T19:12:43.757Z,98931.34
2023-03-11T19:15:11.848Z,98913.81
2023-03-11T19:17:38.554Z,98921.31
2023-03-11T19:20:08.853Z,98918.78
2023-03-11T19:22:36.799Z,98922.69
2023-03-11T19:25:04.618Z,98914.78
2023-03-11T19:27:31.864Z,98918.19
2023-03-11T19:29:58.608Z,98910.63
2023-03-11T19:32:25.247Z,98889.22
2023-03-11T19:34:51.923Z,98897.78
2023-03-11T19:37:18.511Z,98896.28
2023-03-11T19:39:45.130Z,98904.88
2023-03-11T19:42:12.050Z,98889.44
2023-03-11T19:44:38.884Z,98878.63
2023-03-11T19:47:05.778Z,98888.16
2023-03-11T19:49:32.511Z,98880.03
2023-03-11T19:51:59.208Z,98879.44
2023-03-11T19:54:25.820Z,98883.56
2023-03-11T19:56:52.440Z,98887.72
2023-03-11T19:59:19.150Z,98880.94
2023-03-11T20:01:45.801Z,98876.50
2023-03-11T20:04:12.660Z,98884.84
2023-03-11T20:06:39.427Z,98896.06
2023-03-11T20:09:06.872Z,98901.84
2023-03-11T20:11:33.618Z,98891.69
2023-03-11T20:14:00.305Z,98888.53
2023-03-11T20:16:27.010Z,98886.06
2023-03-11T20:18:53.795Z,98882.53
2023-03-11T20:21:20.727Z,98885.81
2023-03-11T20:23:49.012Z,98876.06
2023-03-11T20:26:18.702Z,98869.44
2023-03-11T20:28:45.321Z,98878.63
2023-03-11T20:31:21.043Z,98866.13
2023-03-11T20:33:49.506Z,98864.44
2023-03-11T20:36:21.009Z,98864.84
2023-03-11T20:38:52.671Z,98853.56
2023-03-11T20:41:20.043Z,98861.06
2023-03-11T20:43:46.711Z,98856.25
2023-03-11T20:46:13.466Z,98849.56
2023-03-11T20:48:40.674Z,98849.34
2023-03-11T20:51:10.785Z,98848.03
2023-03-11T20:53:38.486Z,98842.03
2023-03-11T20:56:11.107Z,98848.66
2023-03-11T20:58:38.595Z,98831.34
2023-03-11T21:01:19.987Z,98834.88
2023-03-11T21:03:47.126Z,98833.00
2023-03-11T21:06:22.992Z,98824.03
2023-03-11T21:08:50.243Z,98826.06
2023-03-11T21:11:17.177Z,98822.00
2023-03-11T21:13:44.002Z,98813.28
2023-03-11T21:16:10.734Z,98808.88
2023-03-11T21:18:37.511Z,98807.38
2023-03-11T21:21:08.379Z,98804.66
2023-03-11T21:23:35.875Z,98805.50
2023-03-11T21:26:04.217Z,98807.38
2023-03-11T21:28:31.896Z,98804.66
2023-03-11T21:31:03.678Z,98793.81
2023-03-11T21:33:31.132Z,98790.09
2023-03-11T21:35:59.878Z,98794.44
2023-03-11T21:38:27.717Z,98785.25
2023-03-11T21:41:05.983Z,98784.66
2023-03-11T21:43:32.966Z,98782.53
2023-03-11T21:45:59.685Z,98780.41
2023-03-11T21:48:26.377Z,98788.72
2023-03-11T21:50:53.047Z,98778.00
2023-03-11T21:53:20.000Z,98788.47
2023-03-11T21:55:47.388Z,98781.16
2023-03-11T21:58:14.850Z,98793.44
2023-03-11T22:00:41.754Z,98792.13
2023-03-11T22:03:08.550Z,98791.06
2023-03-11T22:05:35.418Z,98784.94
2023-03-11T22:08:02.396Z,98776.00
2023-03-11T22:10:30.273Z,98784.88
2023-03-11T22:12:57.040Z,98768.22
2023-03-11T22:15:23.750Z,98770.69
2023-03-11T22:17:50.795Z,98767.53
2023-03-11T22:20:17.992Z,98767.78
2023-03-11T22:22:44.676Z,98767.66
2023-03-11T22:25:11.301Z,98765.78
2023-03-11T22:27:38.669Z,98764.94
2023-03-11T22:30:06.436Z,98765.19
2023-03-11T22:32:33.301Z,98750.56
2023-03-11T22:34:59.954Z,98761.53
2023-03-11T22:37:26.893Z,98761.91
2023-03-11T22:39:53.636Z,98755.91
2023-03-11T22:42:20.258Z,98761.91
2023-03-11T22:44:46.888Z,98755.41
2023-03-11T22:47:13.700Z,98760.38
2023-03-11T22:49:40.328Z,98754.97
2023-03-11T22:52:06.934Z,98740.09
2023-03-11T22:54:33.625Z,98740.94
2023-03-11T22:57:00.256Z,98746.25
2023-03-11T22:59:30.627Z,98742.00
2023-03-11T23:01:57.623Z,98744.25
2023-03-11T23:04:24.567Z,98742.81
2023-03-11T23:06:51.322Z,98732.81
2023-03-11T23:09:18.002Z,98742.38
2023-03-11T23:11:44.653Z,98737.97
2023-03-11T23:14:11.299Z,98731.28
2023-03-11T23:16:37.901Z,98726.66
2023-03-11T23:19:04.528Z,98738.69
2023-03-11T23:21:32.452Z,98735.53
2023-03-11T23:24:00.813Z,98735.66
2023-03-11T23:26:28.465Z,98723.16
2023-03-11T23:28:55.790Z,98728.06
2023-03-11T23:31:25.265Z,98726.09
2023-03-11T23:33:52.035Z,98732.44
2023-03-11T23:36:21.738Z,98727.84
2023-03-11T23:38:50.832Z,98733.97
2023-03-11T23:41:19.606Z,98725.13
2023-03-11T23:43:46.596Z,98731.22
2023-03-11T23:46:13.361Z,98734.91
2023-03-11T23:48:41.029Z,98735.00
2023-03-11T23:51:10.974Z,98732.63
2023-03-11T23:53:38.215Z,98730.88
2023-03-11T23:56:13.937Z,98745.63
2023-03-11T23:58:41.123Z,98736.50
